Ufimets — UFNC — position and weather

sailwx.info

Track history (hours):
 
Tides and Currents Weather Stations Pressure Air Temp Water Temp Dewpoint Dewpoint Depression Visibility Wind Speed Wind Dir Waves Ship Positions

Ufimets

Last reported at 2017-May-01 01:44 UTC. Time now 2017-May-22 23:13 UTC.
Position N 59°48' E 030°38'.
Warning: this ship's position is 21 days out of date.

Length 82 m; draft 1.8 m.

Type: Ship. MMSI: 27343260.

Date/timePositionNaut miles runAvg speedWind from/ knotsBaromVisibWave heightAir tempDewpointWater temp
2017-May-01 01:44N 59°48' E 030°38'1 5.8
2017-May-01 01:30N 59°49' E 030°36'2 4.4
2017-May-01 00:59N 59°50' E 030°33'2 4.8
2017-May-01 00:30N 59°52' E 030°29'3 4.7
2017-Apr-30 23:58N 59°54' E 030°27'3 5.7
2017-Apr-30 23:30N 59°56' E 030°24'2 3.3
2017-Apr-30 23:00N 59°57' E 030°21'2 4.8
2017-Apr-30 22:30N 59°56' E 030°17'0 0.0
2017-Apr-30 22:00N 59°56' E 030°17'0 0.0
2017-Apr-30 21:30N 59°56' E 030°17'0 0.0
2017-Apr-30 21:00N 59°56' E 030°17'0 0.0
2017-Apr-30 20:30N 59°56' E 030°17'0 0.0
2017-Apr-30 20:00N 59°56' E 030°17'0 0.0
2017-Apr-30 19:30N 59°56' E 030°17'0 0.0
2017-Apr-30 19:00N 59°56' E 030°17'0 0.0
2017-Apr-30 18:30N 59°56' E 030°17'0 0.0
2017-Apr-30 18:00N 59°56' E 030°17'0 0.0
2017-Apr-30 17:30N 59°56' E 030°17'0 0.0
2017-Apr-30 17:00N 59°56' E 030°17'0 0.0
2017-Apr-30 16:30N 59°56' E 030°17'0 0.0
2017-Apr-30 16:00N 59°56' E 030°17'0 0.0
2017-Apr-30 15:30N 59°56' E 030°17'0 0.0
2017-Apr-30 15:00N 59°56' E 030°17'0 0.0
2017-Apr-30 14:30N 59°56' E 030°17'0 0.0
2017-Apr-30 13:30N 59°56' E 030°17'3 5.3
2017-Apr-30 13:00N 59°54' E 030°13'1 1.9
2017-Apr-30 12:29N 59°53' E 030°13'0 0.0
2017-Apr-30 11:59N 59°53' E 030°13'0 0.0
2017-Apr-30 11:30N 59°53' E 030°13'2 4.9
2017-Apr-30 11:00N 59°54' E 030°08'4 7.9
2017-Apr-30 10:31N 59°55' E 030°01'4 8.0
2017-Apr-30 10:00N 59°57' E 029°53'4 7.7
2017-Apr-30 09:31N 59°58' E 029°46'0 0.6
2017-Apr-30 08:59N 59°59' E 029°47'0 0.0
2017-Apr-30 08:29N 59°59' E 029°47'0 0.0
2017-Apr-29 22:17N 59°59' E 029°47'0 0.0
2017-Apr-29 21:59N 59°59' E 029°47'0 0.0
2017-Apr-29 21:29N 59°59' E 029°47'0 0.0
2017-Apr-29 20:59N 59°59' E 029°47'0 0.0
2017-Apr-29 20:23N 59°59' E 029°47'0 0.0
2017-Apr-29 19:56N 59°59' E 029°47'0 0.0
2017-Apr-29 19:29N 59°59' E 029°47'0 0.0
2017-Apr-29 18:59N 59°59' E 029°47'0 0.0
2017-Apr-29 18:29N 59°59' E 029°47'0 0.0
2017-Apr-29 17:59N 59°59' E 029°47'0 0.0
2017-Apr-29 17:29N 59°59' E 029°47'0 0.0
2017-Apr-29 16:59N 59°59' E 029°47'0 0.0
2017-Apr-29 16:29N 59°59' E 029°47'0 0.0
2017-Apr-29 15:59N 59°59' E 029°47'0 0.0
2017-Apr-29 15:29N 59°59' E 029°47'0 0.0
2017-Apr-29 14:53N 59°59' E 029°47'0 0.0
2017-Apr-29 13:59N 59°59' E 029°47'0 0.0
2017-Apr-29 13:11N 59°59' E 029°47'0 0.0
2017-Apr-29 12:59N 59°59' E 029°47'0 0.0
2017-Apr-29 12:29N 59°59' E 029°47'0 0.0
2017-Apr-29 11:59N 59°59' E 029°47'0 0.0
2017-Apr-29 11:17N 59°59' E 029°47'0 0.0
2017-Apr-29 10:53N 59°59' E 029°47'0 0.0
2017-Apr-29 10:23N 59°59' E 029°47'0 0.0
2017-Apr-29 09:53N 59°59' E 029°47'0 0.0
2017-Apr-29 08:59N 59°59' E 029°47'0 0.0
2017-Apr-29 08:29N 59°59' E 029°47'0 0.0
2017-Apr-29 00:23N 59°59' E 029°47'0 0.0
2017-Apr-28 23:54N 59°59' E 029°47'0 0.0
2017-Apr-28 23:29N 59°59' E 029°47'0 0.0
2017-Apr-28 22:53N 59°59' E 029°47'0 0.0
2017-Apr-28 21:53N 59°59' E 029°47'0 0.0
2017-Apr-28 21:17N 59°59' E 029°47'0 0.0
2017-Apr-28 20:59N 59°59' E 029°47'0 0.0
2017-Apr-28 20:05N 59°59' E 029°47'0 0.0
2017-Apr-28 19:05N 59°59' E 029°47'0 0.0
2017-Apr-28 10:59N 59°59' E 029°47'0 0.0
2017-Apr-28 10:05N 59°59' E 029°47'0 0.0
2017-Apr-28 09:59N 59°59' E 029°47'0 0.0
2017-Apr-28 09:29N 59°59' E 029°47'0 0.0
2017-Apr-28 04:47N 59°59' E 029°47'0 0.0
2017-Apr-28 03:17N 59°59' E 029°47'0 0.0
2017-Apr-28 02:53N 59°59' E 029°47'0 0.0
2017-Apr-28 02:23N 59°59' E 029°47'0 0.0
2017-Apr-28 01:59N 59°59' E 029°47'0 0.0
2017-Apr-27 21:23N 59°59' E 029°47'0 0.0
2017-Apr-27 17:05N 59°59' E 029°47'0 0.0
2017-Apr-27 16:41N 59°59' E 029°47'0 0.0
2017-Apr-27 16:17N 59°59' E 029°47'0 0.0
2017-Apr-27 15:53N 59°59' E 029°47'0 0.0
2017-Apr-27 15:29N 59°59' E 029°47'0 0.0
2017-Apr-27 14:54N 59°59' E 029°47'0 0.0
2017-Apr-27 14:30N 59°59' E 029°47'  
Track history (hours):
 
Tides and Currents Weather Stations Pressure Air Temp Water Temp Dewpoint Dewpoint Depression Visibility Wind Speed Wind Dir Waves Ship Positions

Ufimets

Last reported at 2017-May-01 01:44 UTC. Time now 2017-May-22 23:13 UTC.
Position N 59°48' E 030°38'.
Warning: this ship's position is 21 days out of date.

Length 82 m; draft 1.8 m.

Type: Ship. MMSI: 27343260.

Date/timePositionNaut miles runAvg speedWind from/ knotsBaromVisibWave heightAir tempDewpointWater temp
2017-May-01 01:44N 59°48' E 030°38'1 5.8
2017-May-01 01:30N 59°49' E 030°36'2 4.4
2017-May-01 00:59N 59°50' E 030°33'2 4.8
2017-May-01 00:30N 59°52' E 030°29'3 4.7
2017-Apr-30 23:58N 59°54' E 030°27'3 5.7
2017-Apr-30 23:30N 59°56' E 030°24'2 3.3
2017-Apr-30 23:00N 59°57' E 030°21'2 4.8
2017-Apr-30 22:30N 59°56' E 030°17'0 0.0
2017-Apr-30 22:00N 59°56' E 030°17'0 0.0
2017-Apr-30 21:30N 59°56' E 030°17'0 0.0
2017-Apr-30 21:00N 59°56' E 030°17'0 0.0
2017-Apr-30 20:30N 59°56' E 030°17'0 0.0
2017-Apr-30 20:00N 59°56' E 030°17'0 0.0
2017-Apr-30 19:30N 59°56' E 030°17'0 0.0
2017-Apr-30 19:00N 59°56' E 030°17'0 0.0
2017-Apr-30 18:30N 59°56' E 030°17'0 0.0
2017-Apr-30 18:00N 59°56' E 030°17'0 0.0
2017-Apr-30 17:30N 59°56' E 030°17'0 0.0
2017-Apr-30 17:00N 59°56' E 030°17'0 0.0
2017-Apr-30 16:30N 59°56' E 030°17'0 0.0
2017-Apr-30 16:00N 59°56' E 030°17'0 0.0
2017-Apr-30 15:30N 59°56' E 030°17'0 0.0
2017-Apr-30 15:00N 59°56' E 030°17'0 0.0
2017-Apr-30 14:30N 59°56' E 030°17'0 0.0
2017-Apr-30 13:30N 59°56' E 030°17'3 5.3
2017-Apr-30 13:00N 59°54' E 030°13'1 1.9
2017-Apr-30 12:29N 59°53' E 030°13'0 0.0
2017-Apr-30 11:59N 59°53' E 030°13'0 0.0
2017-Apr-30 11:30N 59°53' E 030°13'2 4.9
2017-Apr-30 11:00N 59°54' E 030°08'4 7.9
2017-Apr-30 10:31N 59°55' E 030°01'4 8.0
2017-Apr-30 10:00N 59°57' E 029°53'4 7.7
2017-Apr-30 09:31N 59°58' E 029°46'0 0.6
2017-Apr-30 08:59N 59°59' E 029°47'0 0.0
2017-Apr-30 08:29N 59°59' E 029°47'0 0.0
2017-Apr-29 22:17N 59°59' E 029°47'0 0.0
2017-Apr-29 21:59N 59°59' E 029°47'0 0.0
2017-Apr-29 21:29N 59°59' E 029°47'0 0.0
2017-Apr-29 20:59N 59°59' E 029°47'0 0.0
2017-Apr-29 20:23N 59°59' E 029°47'0 0.0
2017-Apr-29 19:56N 59°59' E 029°47'0 0.0
2017-Apr-29 19:29N 59°59' E 029°47'0 0.0
2017-Apr-29 18:59N 59°59' E 029°47'0 0.0
2017-Apr-29 18:29N 59°59' E 029°47'0 0.0
2017-Apr-29 17:59N 59°59' E 029°47'0 0.0
2017-Apr-29 17:29N 59°59' E 029°47'0 0.0
2017-Apr-29 16:59N 59°59' E 029°47'0 0.0
2017-Apr-29 16:29N 59°59' E 029°47'0 0.0
2017-Apr-29 15:59N 59°59' E 029°47'0 0.0
2017-Apr-29 15:29N 59°59' E 029°47'0 0.0
2017-Apr-29 14:53N 59°59' E 029°47'0 0.0
2017-Apr-29 13:59N 59°59' E 029°47'0 0.0
2017-Apr-29 13:11N 59°59' E 029°47'0 0.0
2017-Apr-29 12:59N 59°59' E 029°47'0 0.0
2017-Apr-29 12:29N 59°59' E 029°47'0 0.0
2017-Apr-29 11:59N 59°59' E 029°47'0 0.0
2017-Apr-29 11:17N 59°59' E 029°47'0 0.0
2017-Apr-29 10:53N 59°59' E 029°47'0 0.0
2017-Apr-29 10:23N 59°59' E 029°47'0 0.0
2017-Apr-29 09:53N 59°59' E 029°47'0 0.0
2017-Apr-29 08:59N 59°59' E 029°47'0 0.0
2017-Apr-29 08:29N 59°59' E 029°47'0 0.0
2017-Apr-29 00:23N 59°59' E 029°47'0 0.0
2017-Apr-28 23:54N 59°59' E 029°47'0 0.0
2017-Apr-28 23:29N 59°59' E 029°47'0 0.0
2017-Apr-28 22:53N 59°59' E 029°47'0 0.0
2017-Apr-28 21:53N 59°59' E 029°47'0 0.0
2017-Apr-28 21:17N 59°59' E 029°47'0 0.0
2017-Apr-28 20:59N 59°59' E 029°47'0 0.0
2017-Apr-28 20:05N 59°59' E 029°47'0 0.0
2017-Apr-28 19:05N 59°59' E 029°47'0 0.0
2017-Apr-28 10:59N 59°59' E 029°47'0 0.0
2017-Apr-28 10:05N 59°59' E 029°47'0 0.0
2017-Apr-28 09:59N 59°59' E 029°47'0 0.0
2017-Apr-28 09:29N 59°59' E 029°47'0 0.0
2017-Apr-28 04:47N 59°59' E 029°47'0 0.0
2017-Apr-28 03:17N 59°59' E 029°47'0 0.0
2017-Apr-28 02:53N 59°59' E 029°47'0 0.0
2017-Apr-28 02:23N 59°59' E 029°47'0 0.0
2017-Apr-28 01:59N 59°59' E 029°47'0 0.0
2017-Apr-27 21:23N 59°59' E 029°47'0 0.0
2017-Apr-27 17:05N 59°59' E 029°47'0 0.0
2017-Apr-27 16:41N 59°59' E 029°47'0 0.0
2017-Apr-27 16:17N 59°59' E 029°47'0 0.0
2017-Apr-27 15:53N 59°59' E 029°47'0 0.0
2017-Apr-27 15:29N 59°59' E 029°47'0 0.0
2017-Apr-27 14:54N 59°59' E 029°47'0 0.0
2017-Apr-27 14:30N 59°59' E 029°47'  

Dump ship's entire track history